Beirut, Lebanon
Current Conditions -  °F | °C
As of 6:00 PM on Friday 19 Dec 2014 (Local Time) from OLBA Reporting Station
Broken Clouds Broken Clouds  
Wind Chill: 64°   Ceiling: 2600
Heat Index: 64°   Visibility: 5mi
Dew Point: 55°   Wind: 2mph
Humidity: 73%   Direction: 320°NW
Pressure: 30.09"   Gusts: NA
Location:  33.89°N, 35.51°E
Report Text: OLBA 191500Z 32002KT 8000 BKN026 FEW080 18/13 Q1019
Loading
Personal Weather Stations






























Interactive Weather Map New forecast layout! Learn more

10-Day Weather Forecast

Advertisements
Track Severe Weather on mobile